createdAt,value
2018-11-14T00:00:44.110Z,10.73
2018-11-14T00:03:12.655Z,19.33
2018-11-14T00:05:41.146Z,28.30
2018-11-14T00:08:09.800Z,29.13
2018-11-14T00:10:38.396Z,18.93
2018-11-14T00:13:06.961Z,20.90
2018-11-14T00:15:35.476Z,18.20
2018-11-14T00:18:04.162Z,23.97
2018-11-14T00:20:32.715Z,16.13
2018-11-14T00:23:01.212Z,28.47
2018-11-14T00:25:29.747Z,26.30
2018-11-14T00:27:58.304Z,18.90
2018-11-14T00:30:27.081Z,16.00
2018-11-14T00:32:55.663Z,26.50
2018-11-14T00:35:24.203Z,24.70
2018-11-14T00:37:52.701Z,24.33
2018-11-14T00:40:21.835Z,23.20
2018-11-14T00:42:50.717Z,15.73
2018-11-14T00:45:20.531Z,18.60
2018-11-14T00:47:49.518Z,26.60
2018-11-14T00:50:18.654Z,21.83
2018-11-14T00:52:47.319Z,20.30
2018-11-14T00:55:18.315Z,22.70
2018-11-14T00:57:47.893Z,25.97
2018-11-14T01:00:22.520Z,22.10
2018-11-14T01:02:51.033Z,17.20
2018-11-14T01:05:19.789Z,20.93
2018-11-14T01:07:48.313Z,23.93
2018-11-14T01:10:18.204Z,22.23
2018-11-14T01:12:47.515Z,25.70
2018-11-14T01:15:17.636Z,23.33
2018-11-14T01:17:46.247Z,19.53
2018-11-14T01:20:16.022Z,26.83
2018-11-14T01:22:45.063Z,25.00
2018-11-14T01:25:14.603Z,22.47
2018-11-14T01:27:43.662Z,25.97
2018-11-14T01:30:15.374Z,27.17
2018-11-14T01:32:44.806Z,23.77
2018-11-14T01:35:13.465Z,20.77
2018-11-14T01:37:42.088Z,24.27
2018-11-14T01:40:16.797Z,23.67
2018-11-14T01:42:46.853Z,20.97
2018-11-14T01:45:15.370Z,24.33
2018-11-14T01:47:43.968Z,26.60
2018-11-14T01:50:12.600Z,27.43
2018-11-14T01:52:42.709Z,26.90
2018-11-14T01:55:19.591Z,32.50
2018-11-14T01:57:48.143Z,24.10
2018-11-14T02:00:18.830Z,19.70
2018-11-14T02:02:47.528Z,21.17
2018-11-14T02:05:16.575Z,26.50
2018-11-14T02:07:45.227Z,21.03
2018-11-14T02:10:15.521Z,26.80
2018-11-14T02:12:44.700Z,29.93
2018-11-14T02:15:16.484Z,24.13
2018-11-14T02:17:45.034Z,24.37
2018-11-14T02:20:13.834Z,29.77
2018-11-14T02:22:42.947Z,29.80
2018-11-14T02:25:12.166Z,27.20
2018-11-14T02:27:40.735Z,23.63
2018-11-14T02:30:11.290Z,27.07
2018-11-14T02:32:40.655Z,21.47
2018-11-14T02:35:09.702Z,34.97
2018-11-14T02:37:38.685Z,29.10
2018-11-14T02:40:09.540Z,38.30
2018-11-14T02:42:38.206Z,34.33
2018-11-14T02:45:07.001Z,32.87
2018-11-14T02:47:35.518Z,29.80
2018-11-14T02:50:04.092Z,33.67
2018-11-14T02:52:32.583Z,31.77
2018-11-14T02:55:01.096Z,32.93
2018-11-14T02:57:29.549Z,27.47
2018-11-14T02:59:58.071Z,29.43
2018-11-14T03:02:26.668Z,33.30
2018-11-14T03:04:55.460Z,36.13
2018-11-14T03:07:23.997Z,39.27
2018-11-14T03:09:52.872Z,41.10
2018-11-14T03:12:21.562Z,35.57
2018-11-14T03:14:49.992Z,32.27
2018-11-14T03:17:18.548Z,40.77
2018-11-14T03:19:47.014Z,33.80
2018-11-14T03:22:15.524Z,38.27
2018-11-14T03:24:44.023Z,41.77
2018-11-14T03:27:13.284Z,37.93
2018-11-14T03:29:41.751Z,37.40
2018-11-14T03:32:10.239Z,38.07
2018-11-14T03:34:38.828Z,35.87
2018-11-14T03:37:07.404Z,38.07
2018-11-14T03:39:35.871Z,40.33
2018-11-14T03:42:04.436Z,39.20
2018-11-14T03:44:32.937Z,39.57
2018-11-14T03:47:01.451Z,51.50
2018-11-14T03:49:29.912Z,46.13
2018-11-14T03:51:58.394Z,44.20
2018-11-14T03:54:26.877Z,52.23
2018-11-14T03:56:55.394Z,46.13
2018-11-14T03:59:23.870Z,49.50
2018-11-14T04:01:52.352Z,51.30
2018-11-14T04:04:20.830Z,49.23
2018-11-14T04:06:49.405Z,48.60
2018-11-14T04:09:17.991Z,54.93
2018-11-14T04:11:46.409Z,56.60
2018-11-14T04:14:14.880Z,57.97
2018-11-14T04:16:43.460Z,56.73
2018-11-14T04:19:11.941Z,59.37
2018-11-14T04:21:40.834Z,62.53
2018-11-14T04:24:09.307Z,69.00
2018-11-14T04:26:37.802Z,77.60
2018-11-14T04:29:06.352Z,64.03
2018-11-14T04:31:34.808Z,63.20
2018-11-14T04:34:03.343Z,72.87
2018-11-14T04:36:31.811Z,72.17
2018-11-14T04:39:00.317Z,64.23
2018-11-14T04:41:28.800Z,75.23
2018-11-14T04:43:57.264Z,72.50
2018-11-14T04:46:25.751Z,67.33
2018-11-14T04:48:54.254Z,76.70
2018-11-14T04:51:22.731Z,71.20
2018-11-14T04:53:51.260Z,72.70
2018-11-14T04:56:19.732Z,77.63
2018-11-14T04:58:48.221Z,70.80
2018-11-14T05:01:16.695Z,71.80
2018-11-14T05:03:45.202Z,87.63
2018-11-14T05:06:13.670Z,74.77
2018-11-14T05:08:42.178Z,82.13
2018-11-14T05:11:10.722Z,76.33
2018-11-14T05:13:39.342Z,77.30
2018-11-14T05:16:07.865Z,77.80
2018-11-14T05:18:36.440Z,91.00
2018-11-14T05:21:05.034Z,69.30
2018-11-14T05:23:33.511Z,75.23
2018-11-14T05:26:02.035Z,79.13
2018-11-14T05:28:31.774Z,74.73
2018-11-14T05:31:00.232Z,72.53
2018-11-14T05:33:28.844Z,75.83
2018-11-14T05:35:57.312Z,62.00
2018-11-14T05:38:25.803Z,64.07
2018-11-14T05:40:54.277Z,62.40
2018-11-14T05:43:22.778Z,63.87
2018-11-14T05:45:51.226Z,76.20
2018-11-14T05:48:19.704Z,66.30
2018-11-14T05:50:48.199Z,70.40
2018-11-14T05:53:16.704Z,63.23
2018-11-14T05:55:45.226Z,58.70
2018-11-14T05:58:13.729Z,61.30
2018-11-14T06:00:42.195Z,65.10
2018-11-14T06:03:10.672Z,51.60
2018-11-14T06:05:39.127Z,60.40
2018-11-14T06:08:07.630Z,58.97
2018-11-14T06:10:36.089Z,57.63
2018-11-14T06:13:04.749Z,58.60
2018-11-14T06:15:33.229Z,50.43
2018-11-14T06:18:01.833Z,60.27
2018-11-14T06:20:30.316Z,53.70
2018-11-14T06:22:58.798Z,56.67
2018-11-14T06:25:37.491Z,52.97
2018-11-14T06:28:07.296Z,52.70
2018-11-14T06:30:36.493Z,60.77
2018-11-14T06:33:06.282Z,51.47
2018-11-14T06:35:34.758Z,48.97
2018-11-14T06:38:03.280Z,55.03
2018-11-14T06:40:31.761Z,54.73
2018-11-14T06:43:00.290Z,52.73
2018-11-14T06:45:30.139Z,46.10
2018-11-14T06:47:59.784Z,52.63
2018-11-14T06:50:28.347Z,54.53
2018-11-14T06:52:59.184Z,46.50
2018-11-14T06:55:27.689Z,51.50
2018-11-14T06:57:56.166Z,46.10
2018-11-14T07:00:30.030Z,48.87
2018-11-14T07:02:59.279Z,49.40
2018-11-14T07:05:27.804Z,46.50
2018-11-14T07:07:56.264Z,50.43
2018-11-14T07:10:26.169Z,42.63
2018-11-14T07:12:58.832Z,46.47
2018-11-14T07:15:27.314Z,41.93
2018-11-14T07:17:55.885Z,44.97
2018-11-14T07:20:26.667Z,41.40
2018-11-14T07:22:55.191Z,37.47
2018-11-14T07:25:23.690Z,42.00
2018-11-14T07:27:52.166Z,42.07
2018-11-14T07:30:21.853Z,50.87
2018-11-14T07:32:52.162Z,42.80
2018-11-14T07:35:20.857Z,48.77
2018-11-14T07:38:28.849Z,48.40
2018-11-14T07:40:58.820Z,45.97
2018-11-14T07:43:27.367Z,41.87
2018-11-14T07:45:55.889Z,45.47
2018-11-14T07:48:24.352Z,45.17
2018-11-14T07:50:52.852Z,43.13
2018-11-14T07:53:21.486Z,45.20
2018-11-14T07:55:50.065Z,46.90
2018-11-14T07:58:18.615Z,52.67
2018-11-14T08:00:47.079Z,46.17
2018-11-14T08:03:15.562Z,51.73
2018-11-14T08:05:44.452Z,48.43
2018-11-14T08:08:13.021Z,47.00
2018-11-14T08:10:41.666Z,51.30
2018-11-14T08:13:10.230Z,51.83
2018-11-14T08:15:38.829Z,49.70
2018-11-14T08:18:07.496Z,48.03
2018-11-14T08:20:35.953Z,54.13
2018-11-14T08:23:04.507Z,46.23
2018-11-14T08:25:32.987Z,40.97
2018-11-14T08:28:01.499Z,49.00
2018-11-14T08:30:30.019Z,47.80
2018-11-14T08:32:58.538Z,46.13
2018-11-14T08:35:27.067Z,47.23
2018-11-14T08:37:55.552Z,50.63
2018-11-14T08:40:24.016Z,54.43
2018-11-14T08:42:52.516Z,52.00
2018-11-14T08:45:20.978Z,50.20
2018-11-14T08:47:49.526Z,50.97
2018-11-14T08:50:18.073Z,48.17
2018-11-14T08:52:46.584Z,41.63
2018-11-14T08:55:15.583Z,43.27
2018-11-14T08:57:45.374Z,41.00
2018-11-14T09:00:18.639Z,41.40
2018-11-14T09:02:47.529Z,44.43
2018-11-14T09:05:16.031Z,44.33
2018-11-14T09:07:44.692Z,37.17
2018-11-14T09:10:15.153Z,39.63
2018-11-14T09:12:44.106Z,42.87
2018-11-14T09:15:13.690Z,42.30
2018-11-14T09:17:42.426Z,36.23
2018-11-14T09:20:16.384Z,36.60
2018-11-14T09:22:45.074Z,40.00
2018-11-14T09:25:15.264Z,42.87
2018-11-14T09:27:44.632Z,42.13
2018-11-14T09:30:16.564Z,35.30
2018-11-14T09:32:45.050Z,40.17
2018-11-14T09:35:15.227Z,39.07
2018-11-14T09:37:44.142Z,41.63
2018-11-14T09:40:14.782Z,30.73
2018-11-14T09:42:43.650Z,31.80
2018-11-14T09:45:18.844Z,33.67
2018-11-14T09:47:47.976Z,34.17
2018-11-14T09:50:19.557Z,30.83
2018-11-14T09:52:50.679Z,35.90
2018-11-14T09:55:19.168Z,31.53
2018-11-14T09:57:47.680Z,31.27
2018-11-14T10:00:18.391Z,33.07
2018-11-14T10:02:50.443Z,35.53
2018-11-14T10:05:20.500Z,34.03
2018-11-14T10:07:49.076Z,32.50
2018-11-14T10:10:18.893Z,35.90
2018-11-14T10:12:47.411Z,35.97
2018-11-14T10:15:19.079Z,38.13
2018-11-14T10:17:48.021Z,35.07
2018-11-14T10:20:18.116Z,37.27
2018-11-14T10:22:46.939Z,40.07
2018-11-14T10:25:15.993Z,32.27
2018-11-14T10:27:45.236Z,32.40
2018-11-14T10:30:16.163Z,36.53
2018-11-14T10:32:45.467Z,38.50
2018-11-14T10:35:13.900Z,39.57
2018-11-14T10:37:42.552Z,32.93
2018-11-14T10:40:16.469Z,34.50
2018-11-14T10:42:45.281Z,35.90
2018-11-14T10:45:15.254Z,28.80
2018-11-14T10:47:43.866Z,29.30
2018-11-14T10:50:15.607Z,35.90
2018-11-14T10:52:44.116Z,35.70
2018-11-14T10:55:13.471Z,34.37
2018-11-14T10:57:42.002Z,39.37
2018-11-14T11:00:20.020Z,33.40
2018-11-14T11:02:53.833Z,36.93
2018-11-14T11:05:29.515Z,41.67
2018-11-14T11:08:03.384Z,42.97
2018-11-14T11:11:37.519Z,43.90
2018-11-14T11:14:11.223Z,46.90
2018-11-14T11:16:44.993Z,45.70
2018-11-14T11:19:14.164Z,46.57
2018-11-14T11:21:42.916Z,39.43
2018-11-14T11:24:11.853Z,42.23
2018-11-14T11:26:40.338Z,38.50
2018-11-14T11:29:10.148Z,50.33
2018-11-14T11:31:38.774Z,45.73
2018-11-14T11:34:08.286Z,44.87
2018-11-14T11:36:36.870Z,41.47
2018-11-14T11:39:08.646Z,48.10
2018-11-14T11:41:37.205Z,47.73
2018-11-14T11:44:05.966Z,46.10
2018-11-14T11:46:34.495Z,49.53
2018-11-14T11:49:03.077Z,47.70
2018-11-14T11:51:31.573Z,55.03
2018-11-14T11:54:00.090Z,51.53
2018-11-14T11:56:28.616Z,51.63
2018-11-14T11:58:57.137Z,53.60
2018-11-14T12:01:25.652Z,46.87
2018-11-14T12:03:54.127Z,45.93
2018-11-14T12:06:22.661Z,49.50
2018-11-14T12:08:51.175Z,49.37
2018-11-14T12:11:19.684Z,51.57
2018-11-14T12:13:48.216Z,49.47
2018-11-14T12:16:17.976Z,51.70
2018-11-14T12:18:46.514Z,53.43
2018-11-14T12:21:15.019Z,57.10
2018-11-14T12:23:43.636Z,52.60
2018-11-14T12:26:12.039Z,61.13
2018-11-14T12:28:40.558Z,55.90
2018-11-14T12:31:09.213Z,49.67
2018-11-14T12:33:37.588Z,49.13
2018-11-14T12:36:06.646Z,55.47
2018-11-14T12:38:35.207Z,58.40
2018-11-14T12:41:03.742Z,42.47
2018-11-14T12:43:32.230Z,51.87
2018-11-14T12:46:00.735Z,39.90
2018-11-14T12:48:29.270Z,47.07
2018-11-14T12:50:57.764Z,37.83
2018-11-14T12:53:26.295Z,45.60
2018-11-14T12:55:54.810Z,48.20
2018-11-14T12:58:23.379Z,47.77
2018-11-14T13:00:51.861Z,46.27
2018-11-14T13:03:20.434Z,53.20
2018-11-14T13:05:49.194Z,47.77
2018-11-14T13:08:18.135Z,43.30
2018-11-14T13:10:46.668Z,47.00
2018-11-14T13:13:15.165Z,46.80
2018-11-14T13:15:43.671Z,42.33
2018-11-14T13:18:12.174Z,45.80
2018-11-14T13:20:40.661Z,40.93
2018-11-14T13:23:09.159Z,43.13
2018-11-14T13:25:37.697Z,41.00
2018-11-14T13:28:06.201Z,48.60
2018-11-14T13:30:34.734Z,37.93
2018-11-14T13:33:03.216Z,46.40
2018-11-14T13:35:31.718Z,35.03
2018-11-14T13:38:00.166Z,42.73
2018-11-14T13:40:28.675Z,37.70
2018-11-14T13:42:57.304Z,37.10
2018-11-14T13:45:25.792Z,36.70
2018-11-14T13:47:54.273Z,40.70
2018-11-14T13:50:23.248Z,36.00
2018-11-14T13:52:51.642Z,34.60
2018-11-14T13:55:21.031Z,40.60
2018-11-14T13:57:50.700Z,26.30
2018-11-14T14:00:20.570Z,26.30
2018-11-14T14:02:49.949Z,37.00
2018-11-14T14:05:21.554Z,31.53
2018-11-14T14:07:50.038Z,28.03
2018-11-14T14:10:18.870Z,29.23
2018-11-14T14:12:48.713Z,28.90
2018-11-14T14:15:18.738Z,27.30
2018-11-14T14:17:47.939Z,29.73
2018-11-14T14:20:17.214Z,26.07
2018-11-14T14:22:45.764Z,27.00
2018-11-14T14:25:15.520Z,23.33
2018-11-14T14:27:44.126Z,20.37
2018-11-14T14:30:14.119Z,23.43
2018-11-14T14:32:43.458Z,26.30
2018-11-14T14:35:12.823Z,19.63
2018-11-14T14:37:41.499Z,20.37
2018-11-14T14:40:12.387Z,24.53
2018-11-14T14:42:40.919Z,23.80
2018-11-14T14:45:10.566Z,26.55
2018-11-14T14:47:39.094Z,26.13
2018-11-14T14:50:09.658Z,21.43
2018-11-14T14:52:39.017Z,18.93
2018-11-14T14:55:09.360Z,26.50
2018-11-14T14:57:39.186Z,20.40
2018-11-14T15:00:13.731Z,18.33
2018-11-14T15:02:42.583Z,21.20
2018-11-14T15:05:12.266Z,20.17
2018-11-14T15:07:41.054Z,25.57
2018-11-14T15:10:12.534Z,19.27
2018-11-14T15:12:41.121Z,17.97
2018-11-14T15:15:09.677Z,18.97
2018-11-14T15:17:38.206Z,26.37
2018-11-14T15:20:09.835Z,23.27
2018-11-14T15:22:38.415Z,20.10
2018-11-14T15:28:21.487Z,19.47
2018-11-14T15:30:50.019Z,20.80
2018-11-14T15:33:18.616Z,23.73
2018-11-14T15:35:47.196Z,17.03
2018-11-14T15:38:15.733Z,17.67
2018-11-14T15:40:44.319Z,19.90
2018-11-14T15:43:12.796Z,23.03
2018-11-14T15:45:41.334Z,24.37
2018-11-14T15:48:09.853Z,16.67
2018-11-14T15:50:38.346Z,18.37
2018-11-14T15:53:06.876Z,14.73
2018-11-14T15:55:35.393Z,17.80
2018-11-14T15:58:04.009Z,23.07
2018-11-14T16:00:33.768Z,22.43
2018-11-14T16:03:02.288Z,20.20
2018-11-14T16:05:32.017Z,27.33
2018-11-14T16:08:01.531Z,17.47
2018-11-14T16:10:31.039Z,17.00
2018-11-14T16:12:59.557Z,23.90
2018-11-14T16:15:31.380Z,14.50
2018-11-14T16:17:59.936Z,19.30
2018-11-14T16:20:28.557Z,15.87
2018-11-14T16:22:57.604Z,15.93
2018-11-14T16:25:27.731Z,20.37
2018-11-14T16:27:57.576Z,20.70
2018-11-14T16:30:29.181Z,19.20
2018-11-14T16:32:58.852Z,22.93
2018-11-14T16:35:27.473Z,16.60
2018-11-14T16:37:56.047Z,15.53
2018-11-14T16:40:25.833Z,13.80
2018-11-14T16:42:55.250Z,12.90
2018-11-14T16:45:23.781Z,15.70
2018-11-14T16:47:52.250Z,23.87
2018-11-14T16:50:21.849Z,17.17
2018-11-14T16:52:50.530Z,15.50
2018-11-14T16:55:20.033Z,16.03
2018-11-14T16:57:49.276Z,16.57
2018-11-14T17:00:19.987Z,18.93
2018-11-14T17:02:48.543Z,23.73
2018-11-14T17:05:17.259Z,12.13
2018-11-14T17:07:45.785Z,12.17
2018-11-14T17:10:15.395Z,11.77
2018-11-14T17:12:44.849Z,11.83
2018-11-14T17:15:14.766Z,17.97
2018-11-14T17:17:43.290Z,12.50
2018-11-14T17:20:13.068Z,19.80
2018-11-14T17:22:42.227Z,13.23
2018-11-14T17:25:11.575Z,14.53
2018-11-14T17:27:40.103Z,16.87
2018-11-14T17:30:11.022Z,11.90
2018-11-14T17:32:39.539Z,11.27
2018-11-14T17:35:09.217Z,13.50
2018-11-14T17:37:38.399Z,19.03
2018-11-14T17:40:11.034Z,10.60
2018-11-14T17:42:39.982Z,8.07
2018-11-14T17:45:10.608Z,12.27
2018-11-14T17:47:39.293Z,12.43
2018-11-14T17:50:11.660Z,9.63
2018-11-14T17:52:40.121Z,13.63
2018-11-14T17:55:10.446Z,15.20
2018-11-14T17:57:38.951Z,18.87
2018-11-14T18:00:10.014Z,13.30
2018-11-14T18:02:38.743Z,10.97
2018-11-14T18:05:09.116Z,8.90
2018-11-14T18:07:37.927Z,8.13
2018-11-14T18:10:08.039Z,12.57
2018-11-14T18:12:41.217Z,11.73
2018-11-14T18:15:10.682Z,17.80
2018-11-14T18:17:39.955Z,18.00
2018-11-14T18:20:11.160Z,12.37
2018-11-14T18:22:40.304Z,16.40
2018-11-14T18:25:09.343Z,14.03
2018-11-14T18:27:38.087Z,10.23
2018-11-14T18:30:09.477Z,15.43
2018-11-14T18:32:38.064Z,13.30
2018-11-14T18:35:08.692Z,11.13
2018-11-14T18:37:37.293Z,17.43
2018-11-14T18:40:07.333Z,12.03
2018-11-14T18:42:35.828Z,12.27
2018-11-14T18:45:04.394Z,11.83
2018-11-14T18:47:32.899Z,16.60
2018-11-14T18:50:01.392Z,16.77
2018-11-14T18:52:29.920Z,13.83
2018-11-14T18:54:58.443Z,13.87
2018-11-14T18:57:26.904Z,12.03
2018-11-14T18:59:55.451Z,9.03
2018-11-14T19:02:23.908Z,14.10
2018-11-14T19:04:52.443Z,12.73
2018-11-14T19:07:20.983Z,15.30
2018-11-14T19:09:49.448Z,11.70
2018-11-14T19:12:18.043Z,10.23
2018-11-14T19:14:46.545Z,15.47
2018-11-14T19:17:15.079Z,7.30
2018-11-14T19:19:43.659Z,12.10
2018-11-14T19:22:12.157Z,14.63
2018-11-14T19:24:40.804Z,11.93
2018-11-14T19:27:10.993Z,14.97
2018-11-14T19:29:39.471Z,9.37
2018-11-14T19:32:08.576Z,14.27
2018-11-14T19:34:37.133Z,13.87
2018-11-14T19:37:05.725Z,13.50
2018-11-14T19:39:34.384Z,8.13
2018-11-14T19:42:02.979Z,9.03
2018-11-14T19:44:31.505Z,13.20
2018-11-14T19:47:00.038Z,17.03
2018-11-14T19:49:28.618Z,12.07
2018-11-14T19:51:57.081Z,11.43
2018-11-14T19:54:25.572Z,10.63
2018-11-14T19:56:54.109Z,12.30
2018-11-14T19:59:22.642Z,11.87
2018-11-14T20:01:51.300Z,8.47
2018-11-14T20:04:19.785Z,14.23
2018-11-14T20:06:48.288Z,13.13
2018-11-14T20:09:16.766Z,10.40
2018-11-14T20:11:45.271Z,13.90
2018-11-14T20:14:13.749Z,10.77
2018-11-14T20:16:42.442Z,12.00
2018-11-14T20:19:10.958Z,8.83
2018-11-14T20:21:39.452Z,8.93
2018-11-14T20:24:07.930Z,12.83
2018-11-14T20:26:36.382Z,17.03
2018-11-14T20:29:04.921Z,11.40
2018-11-14T20:31:33.422Z,13.37
2018-11-14T20:34:02.269Z,13.20
2018-11-14T20:36:30.784Z,14.80
2018-11-14T20:38:59.670Z,14.50
2018-11-14T20:41:28.165Z,11.17
2018-11-14T20:43:56.644Z,9.33
2018-11-14T20:46:26.001Z,15.77
2018-11-14T20:48:54.558Z,12.23
2018-11-14T20:51:23.904Z,7.83
2018-11-14T20:53:52.382Z,9.43
2018-11-14T20:56:20.895Z,6.83
2018-11-14T20:58:49.375Z,11.77
2018-11-14T21:01:17.874Z,11.57
2018-11-14T21:03:46.378Z,16.90
2018-11-14T21:06:14.882Z,11.50
2018-11-14T21:08:43.381Z,17.50
2018-11-14T21:11:11.824Z,13.23
2018-11-14T21:13:40.344Z,10.70
2018-11-14T21:16:08.934Z,13.77
2018-11-14T21:18:37.499Z,5.63
2018-11-14T21:21:05.989Z,11.43
2018-11-14T21:23:34.466Z,6.23
2018-11-14T21:26:02.919Z,11.27
2018-11-14T21:28:31.413Z,8.27
2018-11-14T21:30:59.842Z,13.73
2018-11-14T21:33:28.346Z,13.30
2018-11-14T21:35:56.846Z,10.47
2018-11-14T21:38:25.377Z,9.77
2018-11-14T21:40:53.806Z,11.80
2018-11-14T21:43:22.753Z,15.47
2018-11-14T21:45:51.479Z,9.13
2018-11-14T21:48:20.093Z,16.47
2018-11-14T21:50:48.647Z,14.50
2018-11-14T21:53:17.299Z,11.13
2018-11-14T21:55:45.757Z,15.93
2018-11-14T21:58:14.536Z,16.07
2018-11-14T22:00:42.974Z,12.03
2018-11-14T22:03:12.522Z,7.67
2018-11-14T22:05:41.099Z,12.27
2018-11-14T22:08:09.638Z,16.80
2018-11-14T22:10:38.146Z,14.83
2018-11-14T22:13:06.674Z,12.57
2018-11-14T22:15:35.238Z,11.03
2018-11-14T22:18:03.838Z,16.13
2018-11-14T22:20:32.343Z,13.20
2018-11-14T22:23:00.939Z,14.83
2018-11-14T22:25:30.166Z,13.53
2018-11-14T22:28:01.684Z,10.77
2018-11-14T22:30:32.975Z,9.13
2018-11-14T22:33:01.509Z,10.17
2018-11-14T22:35:31.297Z,10.07
2018-11-14T22:37:59.776Z,16.60
2018-11-14T22:40:29.562Z,10.23
2018-11-14T22:42:58.476Z,14.70
2018-11-14T22:45:31.127Z,9.87
2018-11-14T22:47:59.741Z,9.97
2018-11-14T22:50:28.395Z,7.93
2018-11-14T22:52:56.901Z,11.50
2018-11-14T22:55:26.080Z,10.50
2018-11-14T22:57:54.843Z,12.03
2018-11-14T23:00:26.642Z,12.50
2018-11-14T23:02:56.572Z,8.87
2018-11-14T23:05:25.110Z,8.07
2018-11-14T23:07:54.357Z,8.23
2018-11-14T23:10:23.761Z,11.97
2018-11-14T23:12:52.550Z,9.90
2018-11-14T23:15:21.847Z,8.23
2018-11-14T23:17:50.442Z,6.83
2018-11-14T23:20:19.197Z,10.37
2018-11-14T23:22:48.436Z,13.10
2018-11-14T23:25:17.322Z,12.33
2018-11-14T23:27:47.224Z,8.33
2018-11-14T23:30:16.838Z,14.77
2018-11-14T23:32:47.064Z,8.37
2018-11-14T23:35:23.532Z,11.50
2018-11-14T23:37:53.492Z,7.67
2018-11-14T23:40:22.102Z,11.53
2018-11-14T23:42:50.961Z,10.07
2018-11-14T23:45:20.511Z,11.33
2018-11-14T23:47:49.678Z,16.30
2018-11-14T23:50:21.526Z,11.77
2018-11-14T23:52:51.419Z,11.33
2018-11-14T23:55:20.655Z,11.07
2018-11-14T23:57:49.285Z,14.53
